Flight Track Log - Related Links

Times and Time Zones

All times are in EDT time to prevent confusion due to time zone crossing. See the N966QS flight status page for this flight to view local times or setup timezone preferences in your user account.


Time Position Orientation Groundspeed Altitude Reporting Facility
EDT Latitude Longitude Course Direction KTS MPH feet Rate Location/Type
Sat 08:10:30 PM 38.9167 -77.5667 284° West 225 259 3,900  Level Potomac TRACON
Sat 08:11:41 PM 38.8917 -77.6453 248° West 242 278 6,800 2,884 Climbing Washington Center
Sat 08:12:39 PM 38.8525 -77.7400 242° Southwest 262 302 10,100 3,000 Climbing Washington Center
Sat 08:13:39 PM 38.8178 -77.8217 241° Southwest 276 318 12,700 2,488 Climbing Washington Center
Sat 08:14:42 PM 38.7847 -77.9167 246° West 288 331 15,200 2,083 Climbing Washington Center
Sat 08:15:00 PM 38.8425 -78.1624 284° West  Level FlightAware Approximate
Sat 08:15:40 PM 38.8056 -78.0239 284° West 288 331 16,900  Level Washington Center
Sat 08:16:40 PM 38.8344 -78.1314 289° West 303 349 17,100 496 Climbing Washington Center
Sat 08:17:41 PM 38.8547 -78.2600 281° West 337 388 17,900 1,160 Climbing Washington Center
Sat 08:18:39 PM 38.8536 -78.4014 269° West 372 428 19,400 1,563 Climbing Washington Center
Sat 08:19:40 PM 38.8522 -78.5397 269° West 387 445 21,000 1,623 Climbing Washington Center
Sat 08:20:41 PM 38.8506 -78.6892 269° West 405 466 22,700 1,686 Climbing Washington Center
Sat 08:21:41 PM 38.8489 -78.8331 269° West 405 466 24,400 1,729 Climbing Washington Center
Sat 08:22:39 PM 38.8469 -78.9794 269° West 405 466 26,100 1,815 Climbing Washington Center
Sat 08:23:40 PM 38.8447 -79.1286 269° West 415 478 28,000 2,033 Climbing Washington Center
Sat 08:24:40 PM 38.8422 -79.2778 269° West 420 483 30,200 1,721 Climbing Washington Center
Sat 08:25:42 PM 38.8397 -79.4242 269° West 420 483 31,500 908 Climbing Washington Center
Sat 08:26:39 PM 38.8361 -79.6000 269° West 425 489 32,000 712 Climbing Washington Center
Sat 08:27:40 PM 38.8328 -79.7625 269° West 446 513 32,900 992 Climbing Washington Center
Sat 08:28:40 PM 38.8292 -79.9219 268° West 458 527 34,000 1,008 Climbing Washington Center
Sat 08:29:39 PM 38.8233 -80.0842 267° West 458 527 34,900 545 Climbing Washington Center
Sat 08:30:30 PM 38.8172 -80.1850 266° West 450 518 35,000 54 Climbing Indianapolis Center
Sat 08:31:31 PM 38.8122 -80.3778 268° West 453 521 35,000  Level Indianapolis Center
Sat 08:32:32 PM 38.8089 -80.5381 269° West 451 519 35,000  Level Indianapolis Center
Sat 08:33:32 PM 38.8031 -80.7000 267° West 453 521 35,000  Level Indianapolis Center
Sat 08:34:33 PM 38.7981 -80.8603 268° West 452 520 35,000 639 Level Indianapolis Center
Sat 08:35:34 PM 38.7928 -81.0194 268° West 449 517 36,300 1,131 Climbing Indianapolis Center
Sat 08:36:35 PM 38.7881 -81.1731 268° West 436 502 37,300 560 Climbing Indianapolis Center
Sat 08:38:36 PM 38.7761 -81.4858 267° West 432 497 38,000 231 Climbing Indianapolis Center
Sat 08:39:37 PM 38.7700 -81.6425 267° West 438 504 38,000  Level Indianapolis Center
Sat 08:40:38 PM 38.7656 -81.7797 268° West 438 504 38,000  Level Indianapolis Center
Sat 08:41:39 PM 38.7578 -81.9656 267° West 437 503 38,000  Level Indianapolis Center
Sat 08:42:40 PM 38.7514 -82.1231 267° West 443 510 38,000  Level Indianapolis Center
Sat 08:43:40 PM 38.7456 -82.2814 267° West 445 512 38,000  Level Indianapolis Center
Sat 08:44:41 PM 38.7389 -82.4400 267° West 445 512 38,000  Level Indianapolis Center
Sat 08:45:42 PM 38.7322 -82.5989 267° West 447 514 38,000  Level Indianapolis Center
Sat 08:46:43 PM 38.7253 -82.7600 267° West 451 519 38,000 50 Level Indianapolis Center
Sat 08:47:43 PM 38.7186 -82.9178 267° West 446 513 38,100 545 Climbing Indianapolis Center
Sat 08:48:44 PM 38.7117 -83.0750 267° West 443 510 39,100 934 Climbing Indianapolis Center
Sat 08:49:45 PM 38.7039 -83.2392 267° West 434 499 40,000 885 Climbing Indianapolis Center
Sat 08:50:46 PM 38.6972 -83.3928 267° West 429 494 40,900 496 Climbing Indianapolis Center
Sat 08:51:46 PM 38.6892 -83.5467 266° West 429 494 41,000 50 Climbing Indianapolis Center
Sat 08:52:47 PM 38.6808 -83.7064 266° West 443 510 41,000  Level Indianapolis Center
Sat 08:53:48 PM 38.6736 -83.8647 267° West 444 511 41,000  Level Indianapolis Center
Sat 08:54:48 PM 38.6639 -84.0267 266° West 450 518 41,000  Level Indianapolis Center
Sat 08:55:49 PM 38.6564 -84.1872 267° West 449 517 41,000  Level Indianapolis Center
Sat 08:56:50 PM 38.6550 -84.3489 269° West 450 518 41,000 -49 Level Indianapolis Center
Sat 08:57:51 PM 38.6589 -84.5108 272° West 451 519 40,900  Descending Indianapolis Center
Sat 08:58:51 PM 38.6625 -84.6503 272° West 450 518 41,000 50 Climbing Indianapolis Center
Sat 08:59:52 PM 38.6642 -84.8133 271° West 454 522 41,000  Level Indianapolis Center
Sat 09:00:53 PM 38.6681 -84.9767 272° West 458 527 41,000  Level Indianapolis Center
Sat 09:01:54 PM 38.6717 -85.1397 272° West 456 525 41,000  Level Indianapolis Center
Sat 09:02:54 PM 38.6739 -85.3031 271° West 454 522 41,000  Level Indianapolis Center
Sat 09:03:55 PM 38.6761 -85.4664 271° West 455 524 41,000  Level Indianapolis Center
Sat 09:04:56 PM 38.6783 -85.6322 271° West 461 531 41,000  Level Indianapolis Center
Sat 09:05:56 PM 38.6797 -85.8003 271° West 468 539 41,000  Level Indianapolis Center
Sat 09:06:57 PM 38.6822 -85.9758 271° West 468 539 41,000  Level Indianapolis Center
Sat 09:07:58 PM 38.6833 -86.1422 271° West 468 539 41,000  Level Indianapolis Center
Sat 09:08:59 PM 38.6839 -86.3064 270° West 462 532 41,000  Level Indianapolis Center
Sat 09:09:59 PM 38.6844 -86.4703 270° West 460 529 41,000  Level Indianapolis Center
Sat 09:11:00 PM 38.6850 -86.6328 270° West 458 527 41,000  Level Indianapolis Center
Sat 09:12:01 PM 38.6847 -86.7958 270° West 459 528 41,000  Level Indianapolis Center
Sat 09:13:02 PM 38.6858 -86.9578 271° West 458 527 41,000  Level Indianapolis Center
Sat 09:14:02 PM 38.6861 -87.1192 270° West 458 527 41,000  Level Indianapolis Center
Sat 09:15:03 PM 38.6861 -87.3142 270° West 459 528 41,000  Level Indianapolis Center
Sat 09:16:04 PM 38.6853 -87.4758 270° West 457 526 41,000  Level Indianapolis Center
Sat 09:17:05 PM 38.6844 -87.6367 270° West 455 524 41,000  Level Indianapolis Center
Sat 09:18:05 PM 38.6831 -87.7981 269° West 453 521 41,000  Level Indianapolis Center
Sat 09:19:06 PM 38.6822 -87.9622 270° West 459 528 41,000  Level Indianapolis Center
Sat 09:19:35 PM 38.6806 -88.0281 268° West 456 525 41,000 200 Level Kansas City Center
Sat 09:20:36 PM 38.6806 -88.1908 270° West 455 524 41,300 689 Climbing Kansas City Center
Sat 09:21:37 PM 38.6792 -88.3508 269° West 454 522 42,400 836 Climbing Kansas City Center
Sat 09:22:38 PM 38.6772 -88.5081 269° West 448 516 43,000 295 Climbing Kansas City Center
Sat 09:23:39 PM 38.6750 -88.6636 269° West 443 510 43,000  Level Kansas City Center
Sat 09:24:40 PM 38.6714 -88.8272 268° West 451 519 43,000  Level Kansas City Center
Sat 09:25:41 PM 38.6689 -89.0258 269° West 457 526 43,000  Level Kansas City Center
Sat 09:26:41 PM 38.6664 -89.1892 269° West 461 531 43,000  Level Kansas City Center
Sat 09:27:42 PM 38.6625 -89.3536 268° West 464 534 43,000  Level Kansas City Center
Sat 09:28:43 PM 38.6600 -89.5167 269° West 462 532 43,000  Level Kansas City Center
Sat 09:29:44 PM 38.6564 -89.6803 268° West 466 536 43,000  Level Kansas City Center
Sat 09:30:45 PM 38.6525 -89.8450 268° West 465 535 43,000  Level Kansas City Center
Sat 09:31:46 PM 38.6489 -90.0114 268° West 466 536 43,000  Level Kansas City Center
Sat 09:32:46 PM 38.6439 -90.1789 268° West 468 539 43,000  Level Kansas City Center
Sat 09:33:47 PM 38.6383 -90.3436 268° West 467 537 43,000  Level Kansas City Center
Sat 09:34:48 PM 38.6342 -90.5114 268° West 468 539 43,000  Level Kansas City Center
Sat 09:35:49 PM 38.6281 -90.6956 268° West 478 550 43,000  Level Kansas City Center
Sat 09:36:50 PM 38.6233 -90.8639 268° West 475 547 43,000  Level Kansas City Center
Sat 09:37:50 PM 38.6186 -91.0344 268° West 479 551 43,000  Level Kansas City Center
Sat 09:38:51 PM 38.6128 -91.2050 268° West 480 552 43,000  Level Kansas City Center
Sat 09:39:52 PM 38.6069 -91.3750 268° West 479 551 43,000  Level Kansas City Center
Sat 09:40:53 PM 38.6019 -91.5339 268° West 480 552 43,000  Level Kansas City Center
Sat 09:41:54 PM 38.5931 -91.7367 267° West 477 549 43,000  Level Kansas City Center
Sat 09:42:54 PM 38.5850 -91.9061 267° West 478 550 43,000  Level Kansas City Center
Sat 09:43:55 PM 38.5789 -92.0756 267° West 478 550 43,000  Level Kansas City Center
Sat 09:44:56 PM 38.5711 -92.2458 267° West 480 552 43,000  Level Kansas City Center
Sat 09:45:57 PM 38.5631 -92.4169 267° West 483 556 43,000  Level Kansas City Center
Sat 09:46:58 PM 38.5544 -92.5856 266° West 480 552 43,000  Level Kansas City Center
Sat 09:47:58 PM 38.5464 -92.7564 267° West 481 554 43,000  Level Kansas City Center
Sat 09:48:59 PM 38.5378 -92.9281 266° West 483 556 43,000  Level Kansas City Center
Sat 09:50:00 PM 38.5283 -93.1000 266° West 486 559 43,000  Level Kansas City Center
Sat 09:51:00 PM 38.5189 -93.2725 266° West 487 560 43,000  Level Kansas City Center
Sat 09:52:01 PM 38.5103 -93.4425 266° West 483 556 43,000  Level Kansas City Center
Sat 09:53:02 PM 38.5011 -93.6119 266° West 480 552 43,000  Level Kansas City Center
Sat 09:54:02 PM 38.4922 -93.7969 267° West 478 550 43,000  Level Kansas City Center
Sat 09:55:03 PM 38.4828 -93.9594 266° West 480 552 43,000  Level Kansas City Center
Sat 09:56:04 PM 38.4733 -94.1206 266° West 476 548 43,000  Level Kansas City Center
Sat 09:57:05 PM 38.4614 -94.3108 265° West 479 551 43,000  Level Kansas City Center
Sat 09:58:05 PM 38.4511 -94.4725 265° West 477 549 43,000  Level Kansas City Center
Sat 09:59:06 PM 38.4406 -94.6364 265° West 482 555 43,000  Level Kansas City Center
Sat 10:00:06 PM 38.4278 -94.8264 265° West 481 554 43,000  Level Kansas City Center
Sat 10:01:07 PM 38.4169 -94.9894 265° West 482 555 43,000  Level Kansas City Center
Sat 10:02:08 PM 38.4058 -95.1536 265° West 482 555 43,000  Level Kansas City Center
Sat 10:03:08 PM 38.3928 -95.3408 265° West 477 549 43,000  Level Kansas City Center
Sat 10:04:09 PM 38.3817 -95.5042 265° West 480 552 43,000  Level Kansas City Center
Sat 10:05:10 PM 38.3692 -95.6675 264° West 481 554 43,000  Level Kansas City Center
Sat 10:06:10 PM 38.3578 -95.8297 265° West 480 552 43,000  Level Kansas City Center
Sat 10:07:11 PM 38.3433 -96.0194 265° West 481 554 43,000  Level Kansas City Center
Sat 10:08:12 PM 38.3311 -96.1800 265° West 477 549 43,000  Level Kansas City Center
Sat 10:09:12 PM 38.3181 -96.3411 264° West 476 548 43,000  Level Kansas City Center
Sat 10:10:13 PM 38.3047 -96.5061 264° West 478 550 43,000  Level Kansas City Center
Sat 10:11:13 PM 38.2917 -96.6731 264° West 477 549 43,000  Level Kansas City Center
Sat 10:12:14 PM 38.2767 -96.8400 264° West 477 549 43,000  Level Kansas City Center
Sat 10:13:14 PM 38.2631 -97.0072 264° West 476 548 43,000  Level Kansas City Center
Sat 10:14:15 PM 38.2492 -97.1761 264° West 480 552 43,000  Level Kansas City Center
Sat 10:15:15 PM 38.2342 -97.3431 264° West 478 550 43,000  Level Kansas City Center
Sat 10:16:16 PM 38.2156 -97.5442 263° West 480 552 43,000  Level Kansas City Center
Sat 10:17:16 PM 38.2006 -97.7114 264° West 482 555 43,000  Level Kansas City Center
Sat 10:18:17 PM 38.1856 -97.8781 264° West 482 555 43,000  Level Kansas City Center
Sat 10:19:17 PM 38.1703 -98.0439 263° West 481 554 43,000  Level Kansas City Center
Sat 10:20:18 PM 38.1542 -98.2097 263° West 481 554 43,000  Level Kansas City Center
Sat 10:21:18 PM 38.1378 -98.3775 263° West 483 556 43,000  Level Kansas City Center
Sat 10:22:19 PM 38.1214 -98.5475 263° West 487 560 43,000  Level Kansas City Center
Sat 10:23:19 PM 38.1047 -98.7169 263° West 486 559 43,000  Level Kansas City Center
Sat 10:24:20 PM 38.0869 -98.8864 262° West 486 559 43,000  Level Kansas City Center
Sat 10:25:20 PM 38.0697 -99.0567 263° West 488 562 43,000  Level Kansas City Center
Sat 10:26:20 PM 38.0531 -99.2264 263° West 487 560 43,000  Level Kansas City Center
Sat 10:27:21 PM 38.0342 -99.3969 262° West 488 562 43,000  Level Kansas City Center
Sat 10:28:21 PM 38.0142 -99.5844 262° West 486 559 43,000  Level Kansas City Center
Sat 10:29:22 PM 37.9961 -99.7475 262° West 488 562 43,000  Level Kansas City Center
Sat 10:30:22 PM 37.9756 -99.9361 262° West 486 559 43,000  Level Kansas City Center
Sat 10:31:23 PM 37.9578 -100.0975 262° West 485 558 43,000  Level Kansas City Center
Sat 10:32:23 PM 37.9389 -100.2597 262° West 487 560 43,000  Level Kansas City Center
Sat 10:33:24 PM 37.9172 -100.4475 262° West 486 559 43,000  Level Kansas City Center
Sat 10:34:24 PM 37.8981 -100.6081 261° West 486 559 43,000  Level Kansas City Center
Sat 10:35:25 PM 37.8797 -100.7658 262° West 481 554 43,000  Level Kansas City Center
Sat 10:36:26 PM 37.8567 -100.9497 261° West 481 554 43,000  Level Kansas City Center
Sat 10:37:26 PM 37.8369 -101.1072 261° West 481 554 43,000  Level Kansas City Center
Sat 10:38:27 PM 37.8178 -101.2661 261° West 481 554 43,000  Level Kansas City Center
Sat 10:39:27 PM 37.7942 -101.4517 261° West 481 554 43,000  Level Kansas City Center
Sat 10:40:28 PM 37.7750 -101.6106 261° West 481 554 43,000  Level Kansas City Center
Sat 10:41:07 PM 37.7614 -101.7161 261° West 479 551 43,000  Level Denver Center
Sat 10:42:08 PM 37.7386 -101.9022 261° West 481 554 43,000  Level Denver Center
Sat 10:43:09 PM 37.7175 -102.0631 261° West 484 557 43,000  Level Denver Center
Sat 10:44:10 PM 37.6964 -102.2225 261° West 483 556 43,000  Level Denver Center
Sat 10:45:11 PM 37.6722 -102.4075 261° West 480 552 43,000  Level Denver Center
Sat 10:46:12 PM 37.6511 -102.5614 260° West 482 555 43,000  Level Denver Center
Sat 10:47:13 PM 37.6250 -102.7472 260° West 481 554 43,000  Level Denver Center
Sat 10:48:14 PM 37.6039 -102.9072 261° West 484 557 43,000  Level Denver Center
Sat 10:49:15 PM 37.5817 -103.0672 260° West 485 558 43,000  Level Denver Center
Sat 10:50:15 PM 37.5556 -103.2547 260° West 485 558 43,000  Level Denver Center
Sat 10:51:16 PM 37.5347 -103.4067 260° West 485 558 43,000  Level Denver Center
Sat 10:52:17 PM 37.5097 -103.5767 260° West 488 562 43,000  Level Denver Center
Sat 10:53:18 PM 37.4831 -103.7633 260° West 484 557 43,000  Level Denver Center
Sat 10:54:19 PM 37.4592 -103.9261 260° West 484 557 43,000  Level Denver Center
Sat 10:55:20 PM 37.4350 -104.0925 260° West 489 563 43,000  Level Denver Center
Sat 10:56:21 PM 37.4097 -104.2533 259° West 486 559 43,000  Level Denver Center
Sat 10:57:21 PM 37.3822 -104.4403 260° West 484 557 43,000  Level Denver Center
Sat 10:58:34 PM 37.3578 -104.6011 259° West 488 562 43,000  Level Denver Center
Sat 10:59:35 PM 37.3244 -104.8128 259° West 486 559 43,000  Level Denver Center
Sat 11:00:36 PM 37.3000 -104.9719 259° West 486 559 43,000  Level Denver Center
Sat 11:01:37 PM 37.2764 -105.1308 259° West 485 558 43,000  Level Denver Center
Sat 11:02:38 PM 37.2458 -105.3161 258° West 486 559 43,000  Level Denver Center
Sat 11:03:38 PM 37.2211 -105.4753 259° West 485 558 43,000  Level Denver Center
Sat 11:04:39 PM 37.1936 -105.6328 258° West 484 557 43,000  Level Denver Center
Sat 11:05:40 PM 37.1697 -105.7922 259° West 487 560 43,000  Level Denver Center
Sat 11:06:41 PM 37.1375 -105.9853 258° West 485 558 43,000  Level Denver Center
Sat 11:07:41 PM 37.1111 -106.1439 258° West 486 559 43,000  Level Denver Center
Sat 11:08:42 PM 37.0844 -106.3022 258° West 486 559 43,000  Level Denver Center
Sat 11:09:43 PM 37.0542 -106.4878 258° West 486 559 43,000  Level Denver Center
Sat 11:10:44 PM 37.0261 -106.6456 257° West 485 558 43,000  Level Denver Center
Sat 11:11:44 PM 37.0006 -106.8050 259° West 487 560 43,000  Level Denver Center
Sat 11:12:45 PM 36.9678 -106.9881 257° West 483 556 43,000  Level Denver Center
Sat 11:13:46 PM 36.9408 -107.1458 258° West 483 556 43,000  Level Denver Center
Sat 11:14:47 PM 36.9128 -107.3028 257° West 485 558 43,000  Level Denver Center
Sat 11:15:47 PM 36.8797 -107.4858 257° West 483 556 43,000  Level Denver Center
Sat 11:16:48 PM 36.8525 -107.6428 258° West 485 558 43,000  Level Denver Center
Sat 11:17:49 PM 36.8244 -107.7989 257° West 483 556 43,000  Level Denver Center
Sat 11:18:49 PM 36.7914 -107.9831 257° West 487 560 43,000  Level Denver Center
Sat 11:19:50 PM 36.7625 -108.1392 257° West 486 559 43,000  Level Denver Center
Sat 11:20:51 PM 36.7339 -108.2958 257° West 487 560 43,000  Level Denver Center
Sat 11:21:51 PM 36.6994 -108.4783 257° West 487 560 43,000  Level Denver Center
Sat 11:22:52 PM 36.6700 -108.6358 257° West 488 562 43,000  Level Denver Center
Sat 11:23:53 PM 36.6400 -108.7925 257° West 489 563 43,000  Level Denver Center
Sat 11:24:53 PM 36.6047 -108.9736 256° West 486 559 43,000  Level Denver Center
Sat 11:25:54 PM 36.5747 -109.1297 257° West 488 562 43,000  Level Denver Center
Sat 11:26:54 PM 36.5444 -109.2839 256° West 484 557 43,000  Level Denver Center
Sat 11:27:55 PM 36.5086 -109.4661 256° West 487 560 43,000  Level Denver Center
Sat 11:28:56 PM 36.4781 -109.6206 256° West 485 558 43,000  Level Denver Center
Sat 11:29:56 PM 36.4467 -109.7756 256° West 485 558 43,000  Level Denver Center
Sat 11:30:57 PM 36.4103 -109.9558 256° West 485 558 43,000  Level Denver Center
Sat 11:31:57 PM 36.3786 -110.1111 256° West 486 559 43,000  Level Denver Center
Sat 11:32:58 PM 36.3456 -110.2781 256° West 485 558 43,000  Level Denver Center
Sat 11:33:59 PM 36.3106 -110.4408 255° West 486 559 43,000  Level Denver Center
Sat 11:34:59 PM 36.2772 -110.6025 256° West 486 559 43,000  Level Denver Center
Sat 11:36:00 PM 36.2433 -110.7656 256° West 487 560 43,000  Level Denver Center
Sat 11:37:00 PM 36.2089 -110.9281 255° West 487 560 43,000  Level Denver Center
Sat 11:38:01 PM 36.1753 -111.0917 256° West 490 564 43,000  Level Denver Center
Sat 11:39:01 PM 36.1406 -111.2528 255° West 487 560 43,000  Level Denver Center
Sat 11:40:02 PM 36.1069 -111.4150 256° West 487 560 43,000  Level Denver Center
Sat 11:41:03 PM 36.0708 -111.5786 255° West 492 566 43,000  Level Denver Center
Sat 11:42:03 PM 36.0356 -111.7403 255° West 489 563 43,000  Level Denver Center
Sat 11:43:00 PM 35.9994 -111.9044 255° West 489 563 43,000  Level Los Angeles Center
Sat 11:44:01 PM 35.9653 -112.0544 254° West 490 564 43,000  Level Los Angeles Center
Sat 11:45:03 PM 35.9300 -112.2156 255° West 491 565 43,000  Level Los Angeles Center
Sat 11:46:04 PM 35.8867 -112.4069 254° West 489 563 43,000  Level Los Angeles Center
Sat 11:47:05 PM 35.8364 -112.5628 248° West 493 567 43,000  Level Los Angeles Center
Sat 11:48:06 PM 35.7817 -112.7158 246° West 494 568 43,000  Level Los Angeles Center
Sat 11:49:07 PM 35.7281 -112.8689 247° West 493 567 43,000  Level Los Angeles Center
Sat 11:50:09 PM 35.6728 -113.0189 246° West 491 565 43,000  Level Los Angeles Center
Sat 11:51:10 PM 35.6181 -113.1717 246° West 488 562 43,000  Level Los Angeles Center
Sat 11:52:11 PM 35.5533 -113.3525 246° West 498 573 43,000  Level Los Angeles Center
Sat 11:53:12 PM 35.4978 -113.5025 246° West 492 566 43,000  Level Los Angeles Center
Sat 11:54:13 PM 35.4431 -113.6536 246° West 491 565 43,000  Level Los Angeles Center
Sat 11:55:14 PM 35.3875 -113.8039 246° West 489 563 43,000  Level Los Angeles Center
Sat 11:56:15 PM 35.3278 -113.9669 246° West 487 560 43,000  Level Los Angeles Center
Sat 11:57:16 PM 35.2708 -114.1208 246° West 494 568 43,000  Level Los Angeles Center
Sat 11:58:18 PM 35.2142 -114.2733 246° West 493 567 43,000  Level Los Angeles Center
Sat 11:59:19 PM 35.1564 -114.4267 245° Southwest 494 568 43,000  Level Los Angeles Center
Sun 12:00:20 AM 35.0992 -114.5806 246° West 497 572 43,000  Level Los Angeles Center
Sun 12:01:21 AM 35.0392 -114.7344 245° Southwest 498 573 43,000  Level Los Angeles Center
Sun 12:02:22 AM 34.9819 -114.8872 245° Southwest 494 568 43,000  Level Los Angeles Center
Sun 12:03:23 AM 34.9242 -115.0389 245° Southwest 491 565 43,000  Level Los Angeles Center
Sun 12:04:24 AM 34.8672 -115.1892 245° Southwest 490 564 43,000  Level Los Angeles Center
Sun 12:05:25 AM 34.8089 -115.3389 245° Southwest 490 564 43,000  Level Los Angeles Center
Sun 12:06:26 AM 34.7519 -115.4897 245° Southwest 489 563 43,000 -344 Level Los Angeles Center
Sun 12:07:27 AM 34.6931 -115.6411 245° Southwest 488 562 42,300 -1,131 Descending Los Angeles Center
Sun 12:08:28 AM 34.6356 -115.7872 244° Southwest 484 557 40,700 -1,967 Descending Los Angeles Center
Sun 12:09:29 AM 34.5761 -115.9372 244° Southwest 491 565 38,300 -2,803 Descending Los Angeles Center
Sun 12:10:30 AM 34.5047 -116.1186 245° Southwest 497 572 35,000 -3,049 Descending Los Angeles Center
Sun 12:11:31 AM 34.4431 -116.2758 245° Southwest 513 590 32,100 -2,607 Descending Los Angeles Center
Sun 12:12:32 AM 34.3800 -116.4325 244° Southwest 516 594 29,700 -2,410 Descending Los Angeles Center
Sun 12:13:33 AM 34.3172 -116.5883 244° Southwest 516 594 27,200 -2,557 Descending Los Angeles Center
Sun 12:14:34 AM 34.2550 -116.7417 244° Southwest 508 585 24,500 -2,459 Descending Los Angeles Center
Sun 12:15:35 AM 34.1947 -116.8900 244° Southwest 494 568 22,200 -2,066 Descending Los Angeles Center
Sun 12:16:36 AM 34.1442 -117.0169 244° Southwest 425 489 20,300 -1,574 Descending Los Angeles Center
Sun 12:17:37 AM 34.0953 -117.1353 244° Southwest 394 453 19,000 -1,388 Descending Los Angeles Center
Sun 12:18:37 AM 34.0489 -117.2506 244° Southwest 413 475 17,500 -2,926 Descending Los Angeles Center
Sun 12:19:38 AM 34.0311 -117.4161 263° West 417 480 13,100 -2,705 Descending Los Angeles Center
Sun 12:20:39 AM 34.0197 -117.5453 264° West 397 457 12,000 -738 Descending Los Angeles Center
Sun 12:21:40 AM 34.0086 -117.6678 264° West 377 434 11,600 -984 Descending Los Angeles Center
Sun 12:22:41 AM 33.9981 -117.7767 263° West 333 383 10,000 -1,475 Descending Los Angeles Center
Sun 12:23:42 AM 33.9894 -117.8781 264° West 292 336 8,600 -1,525 Descending Los Angeles Center
Sun 12:24:43 AM 33.9797 -117.9625 262° West 282 325 6,900 -1,684 Descending Los Angeles Center
Sun 12:25:36 AM 33.9667 -118.0500 260° West 260 299 5,400 -1,474 Descending Southern California TRACON
Sun 12:26:37 AM 33.9667 -118.1333 270° West 228 262 4,100 -1,190 Descending Southern California TRACON
Sun 12:27:37 AM 33.9500 -118.2000 253° West 208 239 3,000 -1,050 Descending Southern California TRACON
Sun 12:28:37 AM 33.9500 -118.2667 270° West 193 222 2,000 -850 Descending Southern California TRACON
Sun 12:29:37 AM 33.9500 -118.3167 270° West 129 148 1,300 -700 Descending Southern California TRACON
Sun 12:30:37 AM 33.9333 -118.3500 239° Southwest 129 148 600 -550 Descending Southern California TRACON
Sun 12:31:48 AM 33.9378 -118.3878 278° West 132 152 100 -423 Descending Los Angeles Center
Sun 12:33:00 AM 33.9333 -118.4000 259° West  Level FlightAware Approximate

Login

Don't have an account? Register now (free) for customized features, flight alerts, and more!